sensor_id;sensor_type;location;lat;lon;timestamp;pressure;altitude;pressure_sealevel;temperature;humidity
68793;BME280;55778;54.346;10.210;2023-02-18T00:02:09;100980.00;;;5.93;88.85
68793;BME280;55778;54.346;10.210;2023-02-18T00:04:34;100965.06;;;5.87;88.98
68793;BME280;55778;54.346;10.210;2023-02-18T00:06:59;100966.03;;;5.86;89.38
68793;BME280;55778;54.346;10.210;2023-02-18T00:09:25;100964.84;;;5.90;89.05
68793;BME280;55778;54.346;10.210;2023-02-18T00:11:52;100968.63;;;5.88;88.96
68793;BME280;55778;54.346;10.210;2023-02-18T00:14:17;100959.31;;;5.92;88.87
68793;BME280;55778;54.346;10.210;2023-02-18T00:16:45;100951.50;;;6.00;87.85
68793;BME280;55778;54.346;10.210;2023-02-18T00:19:14;100970.34;;;6.01;87.81
68793;BME280;55778;54.346;10.210;2023-02-18T00:21:39;100976.19;;;5.95;88.50
68793;BME280;55778;54.346;10.210;2023-02-18T00:24:06;100970.78;;;5.95;88.29
68793;BME280;55778;54.346;10.210;2023-02-18T00:26:32;100976.19;;;5.95;88.58
68793;BME280;55778;54.346;10.210;2023-02-18T00:28:58;100982.69;;;5.93;88.64
68793;BME280;55778;54.346;10.210;2023-02-18T00:31:28;100978.91;;;5.95;88.51
68793;BME280;55778;54.346;10.210;2023-02-18T00:33:55;100962.66;;;5.95;88.25
68793;BME280;55778;54.346;10.210;2023-02-18T00:36:21;100986.03;;;5.96;88.56
68793;BME280;55778;54.346;10.210;2023-02-18T00:38:49;100991.03;;;5.90;89.38
68793;BME280;55778;54.346;10.210;2023-02-18T00:41:15;100968.75;;;5.86;89.89
68793;BME280;55778;54.346;10.210;2023-02-18T00:43:41;100990.81;;;5.93;89.72
68793;BME280;55778;54.346;10.210;2023-02-18T00:46:07;100998.81;;;5.82;90.87
68793;BME280;55778;54.346;10.210;2023-02-18T00:48:33;100982.25;;;5.86;90.37
68793;BME280;55778;54.346;10.210;2023-02-18T00:50:59;100992.25;;;5.86;90.84
68793;BME280;55778;54.346;10.210;2023-02-18T00:53:26;100999.78;;;5.81;91.10
68793;BME280;55778;54.346;10.210;2023-02-18T00:55:51;100995.91;;;5.85;90.72
68793;BME280;55778;54.346;10.210;2023-02-18T00:58:16;100992.75;;;5.78;91.10
68793;BME280;55778;54.346;10.210;2023-02-18T01:00:42;100997.88;;;5.83;90.87
68793;BME280;55778;54.346;10.210;2023-02-18T01:03:08;100990.72;;;5.82;90.45
68793;BME280;55778;54.346;10.210;2023-02-18T01:05:34;100985.31;;;5.82;90.52
68793;BME280;55778;54.346;10.210;2023-02-18T01:08:00;100974.91;;;5.88;89.67
68793;BME280;55778;54.346;10.210;2023-02-18T01:10:26;100976.00;;;5.86;89.47
68793;BME280;55778;54.346;10.210;2023-02-18T01:12:51;100974.28;;;5.72;90.39
68793;BME280;55778;54.346;10.210;2023-02-18T01:15:17;100976.84;;;5.86;89.32
68793;BME280;55778;54.346;10.210;2023-02-18T01:17:43;100985.97;;;5.85;88.98
68793;BME280;55778;54.346;10.210;2023-02-18T01:20:09;100969.41;;;5.90;88.56
68793;BME280;55778;54.346;10.210;2023-02-18T01:22:35;100978.56;;;5.87;88.54
68793;BME280;55778;54.346;10.210;2023-02-18T01:25:02;100986.06;;;5.84;88.91
68793;BME280;55778;54.346;10.210;2023-02-18T01:27:28;100971.84;;;5.80;88.90
68793;BME280;55778;54.346;10.210;2023-02-18T01:29:54;100977.72;;;5.87;88.10
68793;BME280;55778;54.346;10.210;2023-02-18T01:32:19;100975.53;;;5.79;88.36
68793;BME280;55778;54.346;10.210;2023-02-18T01:34:44;100999.88;;;5.79;88.40
68793;BME280;55778;54.346;10.210;2023-02-18T01:37:11;101000.34;;;5.86;87.24
68793;BME280;55778;54.346;10.210;2023-02-18T01:39:36;100995.47;;;5.91;86.77
68793;BME280;55778;54.346;10.210;2023-02-18T01:42:01;100980.84;;;5.93;86.64
68793;BME280;55778;54.346;10.210;2023-02-18T01:44:27;100984.53;;;5.92;86.63
68793;BME280;55778;54.346;10.210;2023-02-18T01:46:53;100998.94;;;5.93;87.31
68793;BME280;55778;54.346;10.210;2023-02-18T01:49:32;100984.19;;;5.97;86.96
68793;BME280;55778;54.346;10.210;2023-02-18T01:52:11;100996.44;;;5.90;87.90
68793;BME280;55778;54.346;10.210;2023-02-18T01:54:41;100993.41;;;5.94;87.73
68793;BME280;55778;54.346;10.210;2023-02-18T01:57:19;100981.06;;;5.90;88.18
68793;BME280;55778;54.346;10.210;2023-02-18T01:59:51;100984.53;;;5.92;88.36
68793;BME280;55778;54.346;10.210;2023-02-18T02:02:26;100983.66;;;5.92;88.76
68793;BME280;55778;54.346;10.210;2023-02-18T02:04:52;100990.50;;;5.85;89.54
68793;BME280;55778;54.346;10.210;2023-02-18T02:07:20;100984.97;;;5.86;89.77
68793;BME280;55778;54.346;10.210;2023-02-18T02:09:47;100978.72;;;5.86;90.01
68793;BME280;55778;54.346;10.210;2023-02-18T02:18:16;100982.59;;;5.94;89.96
68793;BME280;55778;54.346;10.210;2023-02-18T02:27:11;100979.34;;;5.89;91.02
68793;BME280;55778;54.346;10.210;2023-02-18T02:29:55;100970.78;;;5.95;90.67
68793;BME280;55778;54.346;10.210;2023-02-18T02:35:13;100967.31;;;5.93;91.32
68793;BME280;55778;54.346;10.210;2023-02-18T02:37:48;100983.88;;;5.89;91.72
68793;BME280;55778;54.346;10.210;2023-02-18T02:40:23;100965.38;;;5.95;91.44
68793;BME280;55778;54.346;10.210;2023-02-18T02:45:57;100970.34;;;5.89;91.96
68793;BME280;55778;54.346;10.210;2023-02-18T02:48:36;100973.31;;;5.86;92.13
68793;BME280;55778;54.346;10.210;2023-02-18T02:51:24;100969.19;;;5.93;91.49
68793;BME280;55778;54.346;10.210;2023-02-18T02:53:51;100974.16;;;5.86;92.03
68793;BME280;55778;54.346;10.210;2023-02-18T02:56:19;100972.31;;;5.87;91.65
68793;BME280;55778;54.346;10.210;2023-02-18T02:58:57;100980.78;;;5.82;92.10
68793;BME280;55778;54.346;10.210;2023-02-18T03:07:05;100972.19;;;5.76;92.56
68793;BME280;55778;54.346;10.210;2023-02-18T03:09:46;100982.38;;;5.72;92.74
68793;BME280;55778;54.346;10.210;2023-02-18T03:15:22;100991.66;;;5.68;92.85
68793;BME280;55778;54.346;10.210;2023-02-18T03:18:07;100982.38;;;5.60;93.61
68793;BME280;55778;54.346;10.210;2023-02-18T03:20:40;100985.50;;;5.66;93.43
68793;BME280;55778;54.346;10.210;2023-02-18T03:23:10;100983.03;;;5.63;93.67
68793;BME280;55778;54.346;10.210;2023-02-18T03:25:39;100984.09;;;5.61;94.03
68793;BME280;55778;54.346;10.210;2023-02-18T03:28:08;100973.06;;;5.64;93.81
68793;BME280;55778;54.346;10.210;2023-02-18T03:30:52;100980.66;;;5.59;94.10
68793;BME280;55778;54.346;10.210;2023-02-18T03:33:28;100967.88;;;5.61;94.36
68793;BME280;55778;54.346;10.210;2023-02-18T03:35:55;100963.88;;;5.54;94.71
68793;BME280;55778;54.346;10.210;2023-02-18T03:38:44;100961.06;;;5.55;94.68
68793;BME280;55778;54.346;10.210;2023-02-18T03:41:13;100968.41;;;5.53;95.00
68793;BME280;55778;54.346;10.210;2023-02-18T03:43:49;100971.13;;;5.53;95.39
68793;BME280;55778;54.346;10.210;2023-02-18T03:46:15;100976.75;;;5.50;95.81
68793;BME280;55778;54.346;10.210;2023-02-18T03:48:40;100973.31;;;5.48;96.49
68793;BME280;55778;54.346;10.210;2023-02-18T03:51:06;100976.00;;;5.48;97.03
68793;BME280;55778;54.346;10.210;2023-02-18T03:53:31;100971.81;;;5.44;98.09
68793;BME280;55778;54.346;10.210;2023-02-18T03:55:57;100967.47;;;5.42;98.71
68793;BME280;55778;54.346;10.210;2023-02-18T03:58:22;100967.34;;;5.43;99.80
68793;BME280;55778;54.346;10.210;2023-02-18T04:00:47;100969.63;;;5.49;100.00
68793;BME280;55778;54.346;10.210;2023-02-18T04:03:13;100959.03;;;5.46;100.00
68793;BME280;55778;54.346;10.210;2023-02-18T04:05:38;100957.53;;;5.42;100.00
68793;BME280;55778;54.346;10.210;2023-02-18T04:08:03;100958.28;;;5.44;100.00
68793;BME280;55778;54.346;10.210;2023-02-18T04:10:29;100960.78;;;5.47;100.00
68793;BME280;55778;54.346;10.210;2023-02-18T04:12:55;100958.91;;;5.48;100.00
68793;BME280;55778;54.346;10.210;2023-02-18T04:15:20;100962.59;;;5.47;100.00
68793;BME280;55778;54.346;10.210;2023-02-18T04:17:46;100954.38;;;5.48;100.00
68793;BME280;55778;54.346;10.210;2023-02-18T04:20:11;100948.88;;;5.50;100.00
68793;BME280;55778;54.346;10.210;2023-02-18T04:22:37;100947.78;;;5.52;100.00
68793;BME280;55778;54.346;10.210;2023-02-18T04:25:02;100937.84;;;5.53;100.00
68793;BME280;55778;54.346;10.210;2023-02-18T04:27:28;100941.16;;;5.56;100.00
68793;BME280;55778;54.346;10.210;2023-02-18T04:29:53;100944.84;;;5.55;100.00
68793;BME280;55778;54.346;10.210;2023-02-18T04:32:18;100923.00;;;5.58;100.00
68793;BME280;55778;54.346;10.210;2023-02-18T04:34:44;100931.44;;;5.66;100.00
68793;BME280;55778;54.346;10.210;2023-02-18T04:37:09;100933.16;;;5.67;100.00
68793;BME280;55778;54.346;10.210;2023-02-18T04:39:35;100922.13;;;5.70;100.00
68793;BME280;55778;54.346;10.210;2023-02-18T04:42:00;100922.34;;;5.67;100.00
68793;BME280;55778;54.346;10.210;2023-02-18T04:44:26;100923.41;;;5.77;99.54
68793;BME280;55778;54.346;10.210;2023-02-18T04:46:51;100929.16;;;5.73;99.48
68793;BME280;55778;54.346;10.210;2023-02-18T04:49:16;100935.44;;;5.73;99.40
68793;BME280;55778;54.346;10.210;2023-02-18T04:51:42;100927.88;;;5.78;99.04
68793;BME280;55778;54.346;10.210;2023-02-18T04:54:07;100922.66;;;5.88;98.32
68793;BME280;55778;54.346;10.210;2023-02-18T04:56:33;100919.63;;;5.80;98.28
68793;BME280;55778;54.346;10.210;2023-02-18T04:58:58;100920.59;;;5.79;98.19
68793;BME280;55778;54.346;10.210;2023-02-18T05:01:24;100931.09;;;5.83;98.04
68793;BME280;55778;54.346;10.210;2023-02-18T05:03:49;100918.56;;;5.82;97.82
68793;BME280;55778;54.346;10.210;2023-02-18T05:06:14;100912.94;;;5.85;97.38
68793;BME280;55778;54.346;10.210;2023-02-18T05:08:40;100915.09;;;5.93;96.62
68793;BME280;55778;54.346;10.210;2023-02-18T05:11:06;100907.31;;;5.88;96.58
68793;BME280;55778;54.346;10.210;2023-02-18T05:13:32;100898.97;;;5.91;96.17
68793;BME280;55778;54.346;10.210;2023-02-18T05:15:58;100896.25;;;5.91;96.18
68793;BME280;55778;54.346;10.210;2023-02-18T05:18:23;100900.16;;;5.87;96.63
68793;BME280;55778;54.346;10.210;2023-02-18T05:20:48;100888.03;;;5.80;96.85
68793;BME280;55778;54.346;10.210;2023-02-18T05:23:14;100887.13;;;5.81;96.63
68793;BME280;55778;54.346;10.210;2023-02-18T05:25:39;100889.09;;;5.90;95.53
68793;BME280;55778;54.346;10.210;2023-02-18T05:28:05;100885.69;;;5.88;95.27
68793;BME280;55778;54.346;10.210;2023-02-18T05:30:30;100892.69;;;5.91;94.76
68793;BME280;55778;54.346;10.210;2023-02-18T05:32:56;100883.94;;;5.87;94.88
68793;BME280;55778;54.346;10.210;2023-02-18T05:35:21;100880.25;;;5.88;94.88
68793;BME280;55778;54.346;10.210;2023-02-18T05:37:46;100879.91;;;5.80;95.15
68793;BME280;55778;54.346;10.210;2023-02-18T05:40:12;100892.94;;;5.75;96.00
68793;BME280;55778;54.346;10.210;2023-02-18T05:42:37;100883.75;;;5.65;96.08
68793;BME280;55778;54.346;10.210;2023-02-18T05:45:03;100877.56;;;5.76;95.89
68793;BME280;55778;54.346;10.210;2023-02-18T05:47:28;100878.44;;;5.76;95.88
68793;BME280;55778;54.346;10.210;2023-02-18T05:49:54;100875.00;;;5.62;96.52
68793;BME280;55778;54.346;10.210;2023-02-18T05:52:20;100877.66;;;5.74;95.66
68793;BME280;55778;54.346;10.210;2023-02-18T05:54:46;100863.56;;;5.58;96.32
68793;BME280;55778;54.346;10.210;2023-02-18T05:57:15;100861.06;;;5.55;96.30
68793;BME280;55778;54.346;10.210;2023-02-18T05:59:41;100854.78;;;5.55;96.03
68793;BME280;55778;54.346;10.210;2023-02-18T06:02:06;100852.50;;;5.61;96.11
68793;BME280;55778;54.346;10.210;2023-02-18T06:04:32;100838.13;;;5.61;96.66
68793;BME280;55778;54.346;10.210;2023-02-18T06:06:57;100836.22;;;5.50;97.02
68793;BME280;55778;54.346;10.210;2023-02-18T06:09:23;100838.28;;;5.47;97.16
68793;BME280;55778;54.346;10.210;2023-02-18T06:11:48;100843.59;;;5.48;97.82
68793;BME280;55778;54.346;10.210;2023-02-18T06:14:14;100839.50;;;5.43;98.40
68793;BME280;55778;54.346;10.210;2023-02-18T06:16:39;100838.06;;;5.50;98.82
68793;BME280;55778;54.346;10.210;2023-02-18T06:19:05;100837.53;;;5.45;99.28
68793;BME280;55778;54.346;10.210;2023-02-18T06:21:30;100837.75;;;5.42;99.64
68793;BME280;55778;54.346;10.210;2023-02-18T06:23:56;100846.06;;;5.39;99.99
68793;BME280;55778;54.346;10.210;2023-02-18T06:26:21;100840.44;;;5.42;100.00
68793;BME280;55778;54.346;10.210;2023-02-18T06:28:47;100847.06;;;5.38;100.00
68793;BME280;55778;54.346;10.210;2023-02-18T06:31:12;100830.50;;;5.42;100.00
68793;BME280;55778;54.346;10.210;2023-02-18T06:33:38;100842.19;;;5.43;100.00
68793;BME280;55778;54.346;10.210;2023-02-18T06:36:06;100840.34;;;5.43;100.00
68793;BME280;55778;54.346;10.210;2023-02-18T06:38:32;100848.22;;;5.59;100.00
68793;BME280;55778;54.346;10.210;2023-02-18T06:40:58;100850.31;;;5.43;100.00
68793;BME280;55778;54.346;10.210;2023-02-18T06:43:23;100862.06;;;5.42;100.00
68793;BME280;55778;54.346;10.210;2023-02-18T06:45:50;100850.84;;;5.35;100.00
68793;BME280;55778;54.346;10.210;2023-02-18T06:48:15;100849.88;;;5.36;100.00
68793;BME280;55778;54.346;10.210;2023-02-18T06:50:41;100844.97;;;5.54;100.00
68793;BME280;55778;54.346;10.210;2023-02-18T06:53:06;100846.06;;;5.39;100.00
68793;BME280;55778;54.346;10.210;2023-02-18T06:55:32;100840.06;;;5.35;100.00
68793;BME280;55778;54.346;10.210;2023-02-18T06:57:57;100831.84;;;5.37;100.00
68793;BME280;55778;54.346;10.210;2023-02-18T07:00:23;100829.25;;;5.23;100.00
68793;BME280;55778;54.346;10.210;2023-02-18T07:02:49;100825.56;;;5.24;100.00
68793;BME280;55778;54.346;10.210;2023-02-18T07:05:15;100818.78;;;5.18;100.00
68793;BME280;55778;54.346;10.210;2023-02-18T07:07:40;100813.47;;;5.17;100.00
68793;BME280;55778;54.346;10.210;2023-02-18T07:10:06;100808.75;;;5.20;100.00
68793;BME280;55778;54.346;10.210;2023-02-18T07:12:32;100810.78;;;5.17;100.00
68793;BME280;55778;54.346;10.210;2023-02-18T07:14:57;100808.97;;;5.17;100.00
68793;BME280;55778;54.346;10.210;2023-02-18T07:17:23;100802.59;;;5.06;100.00
68793;BME280;55778;54.346;10.210;2023-02-18T07:19:48;100797.53;;;5.01;100.00
68793;BME280;55778;54.346;10.210;2023-02-18T07:22:14;100791.47;;;4.98;100.00
68793;BME280;55778;54.346;10.210;2023-02-18T07:24:39;100787.25;;;5.06;100.00
68793;BME280;55778;54.346;10.210;2023-02-18T07:27:05;100798.38;;;5.02;100.00
68793;BME280;55778;54.346;10.210;2023-02-18T07:29:31;100795.78;;;5.00;100.00
68793;BME280;55778;54.346;10.210;2023-02-18T07:31:56;100795.28;;;4.95;100.00
68793;BME280;55778;54.346;10.210;2023-02-18T07:34:21;100807.03;;;4.94;100.00
68793;BME280;55778;54.346;10.210;2023-02-18T07:36:47;100802.28;;;4.98;100.00
68793;BME280;55778;54.346;10.210;2023-02-18T07:39:12;100798.38;;;5.02;100.00
68793;BME280;55778;54.346;10.210;2023-02-18T07:41:37;100802.72;;;4.92;100.00
68793;BME280;55778;54.346;10.210;2023-02-18T07:44:03;100793.09;;;5.00;100.00
68793;BME280;55778;54.346;10.210;2023-02-18T07:46:29;100791.03;;;4.91;100.00
68793;BME280;55778;54.346;10.210;2023-02-18T07:48:56;100783.47;;;4.84;100.00
68793;BME280;55778;54.346;10.210;2023-02-18T07:51:23;100787.81;;;4.86;100.00
68793;BME280;55778;54.346;10.210;2023-02-18T07:53:49;100788.78;;;4.85;100.00
68793;BME280;55778;54.346;10.210;2023-02-18T07:56:15;100785.22;;;4.85;100.00
68793;BME280;55778;54.346;10.210;2023-02-18T07:58:40;100778.53;;;4.78;100.00
68793;BME280;55778;54.346;10.210;2023-02-18T08:01:11;100782.66;;;4.83;100.00
68793;BME280;55778;54.346;10.210;2023-02-18T08:03:39;100775.59;;;4.81;100.00
68793;BME280;55778;54.346;10.210;2023-02-18T08:06:06;100764.19;;;4.77;100.00
68793;BME280;55778;54.346;10.210;2023-02-18T08:08:32;100760.38;;;4.80;100.00
68793;BME280;55778;54.346;10.210;2023-02-18T08:11:00;100768.28;;;4.83;100.00
68793;BME280;55778;54.346;10.210;2023-02-18T08:13:28;100768.16;;;4.84;100.00
68793;BME280;55778;54.346;10.210;2023-02-18T08:15:55;100770.13;;;4.70;100.00
68793;BME280;55778;54.346;10.210;2023-02-18T08:18:21;100758.75;;;4.90;100.00
68793;BME280;55778;54.346;10.210;2023-02-18T08:20:48;100762.09;;;4.93;100.00
68793;BME280;55778;54.346;10.210;2023-02-18T08:23:15;100748.97;;;4.76;100.00
68793;BME280;55778;54.346;10.210;2023-02-18T08:25:45;100738.19;;;4.76;100.00
68793;BME280;55778;54.346;10.210;2023-02-18T08:28:11;100741.81;;;4.75;100.00
68793;BME280;55778;54.346;10.210;2023-02-18T08:30:37;100737.91;;;4.79;100.00
68793;BME280;55778;54.346;10.210;2023-02-18T08:33:02;100738.81;;;4.67;100.00
68793;BME280;55778;54.346;10.210;2023-02-18T08:35:27;100735.69;;;4.73;100.00
68793;BME280;55778;54.346;10.210;2023-02-18T08:37:53;100729.31;;;4.74;100.00
68793;BME280;55778;54.346;10.210;2023-02-18T08:40:18;100709.88;;;4.82;100.00
68793;BME280;55778;54.346;10.210;2023-02-18T08:42:44;100713.13;;;4.74;100.00
68793;BME280;55778;54.346;10.210;2023-02-18T08:45:09;100709.75;;;4.83;100.00
68793;BME280;55778;54.346;10.210;2023-02-18T08:47:35;100698.41;;;4.78;100.00
68793;BME280;55778;54.346;10.210;2023-02-18T08:50:00;100703.59;;;4.81;100.00
68793;BME280;55778;54.346;10.210;2023-02-18T08:52:26;100694.88;;;4.65;100.00
68793;BME280;55778;54.346;10.210;2023-02-18T08:54:51;100687.66;;;4.66;100.00
68793;BME280;55778;54.346;10.210;2023-02-18T08:57:17;100687.13;;;4.61;100.00
68793;BME280;55778;54.346;10.210;2023-02-18T08:59:43;100692.19;;;4.65;100.00
68793;BME280;55778;54.346;10.210;2023-02-18T09:02:12;100689.16;;;4.57;100.00
68793;BME280;55778;54.346;10.210;2023-02-18T09:04:37;100687.94;;;4.74;100.00
68793;BME280;55778;54.346;10.210;2023-02-18T09:07:03;100679.56;;;4.66;100.00
68793;BME280;55778;54.346;10.210;2023-02-18T09:09:28;100672.09;;;4.69;100.00
68793;BME280;55778;54.346;10.210;2023-02-18T09:11:54;100682.88;;;4.82;100.00
68793;BME280;55778;54.346;10.210;2023-02-18T09:14:19;100677.16;;;4.74;100.00
68793;BME280;55778;54.346;10.210;2023-02-18T09:16:45;100690.69;;;4.61;100.00
68793;BME280;55778;54.346;10.210;2023-02-18T09:19:11;100684.75;;;4.56;100.00
68793;BME280;55778;54.346;10.210;2023-02-18T09:21:36;100683.47;;;4.49;100.00
68793;BME280;55778;54.346;10.210;2023-02-18T09:24:02;100687.00;;;4.50;100.00
68793;BME280;55778;54.346;10.210;2023-02-18T09:26:27;100686.06;;;4.38;100.00
68793;BME280;55778;54.346;10.210;2023-02-18T09:28:54;100687.03;;;4.37;100.00
68793;BME280;55778;54.346;10.210;2023-02-18T09:31:22;100685.44;;;4.35;100.00
68793;BME280;55778;54.346;10.210;2023-02-18T09:33:54;100687.44;;;4.44;100.00
68793;BME280;55778;54.346;10.210;2023-02-18T09:36:20;100665.66;;;4.34;100.00
68793;BME280;55778;54.346;10.210;2023-02-18T09:38:46;100673.22;;;4.29;100.00
68793;BME280;55778;54.346;10.210;2023-02-18T09:43:55;100652.50;;;4.17;100.00
68793;BME280;55778;54.346;10.210;2023-02-18T09:46:38;100656.31;;;4.02;100.00
68793;BME280;55778;54.346;10.210;2023-02-18T09:49:15;100649.94;;;4.03;100.00
68793;BME280;55778;54.346;10.210;2023-02-18T09:51:42;100657.34;;;3.99;100.00
68793;BME280;55778;54.346;10.210;2023-02-18T09:54:13;100656.16;;;3.91;100.00
68793;BME280;55778;54.346;10.210;2023-02-18T09:56:42;100644.09;;;3.84;100.00
68793;BME280;55778;54.346;10.210;2023-02-18T09:59:13;100650.66;;;3.80;100.00
68793;BME280;55778;54.346;10.210;2023-02-18T10:01:41;100630.69;;;3.70;100.00
68793;BME280;55778;54.346;10.210;2023-02-18T10:04:28;100626.59;;;3.64;100.00
68793;BME280;55778;54.346;10.210;2023-02-18T10:06:56;100621.31;;;3.63;100.00
68793;BME280;55778;54.346;10.210;2023-02-18T10:09:32;100621.44;;;3.61;100.00
68793;BME280;55778;54.346;10.210;2023-02-18T10:12:12;100615.38;;;3.58;100.00
68793;BME280;55778;54.346;10.210;2023-02-18T10:14:39;100601.16;;;3.56;100.00
68793;BME280;55778;54.346;10.210;2023-02-18T10:17:06;100605.47;;;3.58;100.00
68793;BME280;55778;54.346;10.210;2023-02-18T10:19:36;100601.59;;;3.62;100.00
68793;BME280;55778;54.346;10.210;2023-02-18T10:22:04;100587.06;;;3.65;100.00
68793;BME280;55778;54.346;10.210;2023-02-18T10:24:34;100582.75;;;3.75;100.00
68793;BME280;55778;54.346;10.210;2023-02-18T10:27:02;100586.59;;;3.71;100.00
68793;BME280;55778;54.346;10.210;2023-02-18T10:29:28;100573.69;;;3.76;100.00
68793;BME280;55778;54.346;10.210;2023-02-18T10:32:26;100569.28;;;3.75;100.00
68793;BME280;55778;54.346;10.210;2023-02-18T10:37:52;100564.75;;;3.88;100.00
68793;BME280;55778;54.346;10.210;2023-02-18T10:50:57;100568.63;;;3.96;100.00
68793;BME280;55778;54.346;10.210;2023-02-18T10:53:38;100568.41;;;3.99;100.00
68793;BME280;55778;54.346;10.210;2023-02-18T10:56:06;100565.69;;;3.99;100.00
68793;BME280;55778;54.346;10.210;2023-02-18T10:58:34;100552.00;;;4.02;100.00
68793;BME280;55778;54.346;10.210;2023-02-18T11:01:06;100555.78;;;3.87;100.00
68793;BME280;55778;54.346;10.210;2023-02-18T11:03:44;100557.63;;;3.87;100.00
68793;BME280;55778;54.346;10.210;2023-02-18T11:08:48;100545.00;;;4.00;100.00
68793;BME280;55778;54.346;10.210;2023-02-18T11:11:28;100536.78;;;4.14;100.00
68793;BME280;55778;54.346;10.210;2023-02-18T11:13:58;100529.78;;;4.11;100.00
68793;BME280;55778;54.346;10.210;2023-02-18T11:16:45;100521.69;;;4.11;100.00
68793;BME280;55778;54.346;10.210;2023-02-18T11:19:32;100526.97;;;4.13;100.00
68793;BME280;55778;54.346;10.210;2023-02-18T11:24:37;100523.00;;;4.06;100.00
68793;BME280;55778;54.346;10.210;2023-02-18T11:27:09;100523.94;;;4.05;100.00
68793;BME280;55778;54.346;10.210;2023-02-18T11:29:35;100524.94;;;4.04;100.00
68793;BME280;55778;54.346;10.210;2023-02-18T11:32:01;100527.44;;;3.94;100.00
68793;BME280;55778;54.346;10.210;2023-02-18T11:34:30;100526.13;;;3.87;100.00
68793;BME280;55778;54.346;10.210;2023-02-18T11:37:11;100525.28;;;3.87;100.00
68793;BME280;55778;54.346;10.210;2023-02-18T11:39:43;100521.50;;;4.02;100.00
68793;BME280;55778;54.346;10.210;2023-02-18T11:42:13;100523.00;;;3.93;100.00
68793;BME280;55778;54.346;10.210;2023-02-18T11:44:42;100542.41;;;3.86;100.00
68793;BME280;55778;54.346;10.210;2023-02-18T11:49:38;100550.19;;;3.65;100.00
68793;BME280;55778;54.346;10.210;2023-02-18T11:52:27;100548.13;;;3.56;100.00
68793;BME280;55778;54.346;10.210;2023-02-18T11:57:29;100547.91;;;3.34;100.00
68793;BME280;55778;54.346;10.210;2023-02-18T11:59:55;100543.69;;;3.43;100.00
68793;BME280;55778;54.346;10.210;2023-02-18T12:02:33;100548.31;;;3.28;100.00
68793;BME280;55778;54.346;10.210;2023-02-18T12:05:11;100572.97;;;3.10;100.00
68793;BME280;55778;54.346;10.210;2023-02-18T12:10:35;100597.84;;;2.87;100.00
68793;BME280;55778;54.346;10.210;2023-02-18T12:21:28;100593.13;;;2.50;100.00
68793;BME280;55778;54.346;10.210;2023-02-18T12:26:28;100531.69;;;2.44;100.00
68793;BME280;55778;54.346;10.210;2023-02-18T12:29:34;100482.94;;;2.62;100.00
68793;BME280;55778;54.346;10.210;2023-02-18T12:51:35;100596.69;;;2.50;100.00
68793;BME280;55778;54.346;10.210;2023-02-18T12:57:16;100616.69;;;2.32;100.00
68793;BME280;55778;54.346;10.210;2023-02-18T13:03:42;100619.38;;;2.32;100.00
68793;BME280;55778;54.346;10.210;2023-02-18T13:08:47;100619.88;;;2.25;100.00
68793;BME280;55778;54.346;10.210;2023-02-18T13:14:12;100620.31;;;2.45;100.00
68793;BME280;55778;54.346;10.210;2023-02-18T13:16:41;100632.63;;;2.49;100.00
68793;BME280;55778;54.346;10.210;2023-02-18T13:19:21;100633.19;;;2.54;100.00
68793;BME280;55778;54.346;10.210;2023-02-18T13:21:50;100643.94;;;2.54;100.00
68793;BME280;55778;54.346;10.210;2023-02-18T13:24:39;100637.66;;;2.82;100.00
68793;BME280;55778;54.346;10.210;2023-02-18T13:40:51;100636.16;;;2.64;100.00
68793;BME280;55778;54.346;10.210;2023-02-18T13:48:46;100637.16;;;2.89;100.00
68793;BME280;55778;54.346;10.210;2023-02-18T13:51:15;100640.75;;;2.76;100.00
68793;BME280;55778;54.346;10.210;2023-02-18T13:53:43;100647.81;;;2.91;100.00
68793;BME280;55778;54.346;10.210;2023-02-18T13:58:47;100650.28;;;2.94;100.00
68793;BME280;55778;54.346;10.210;2023-02-18T14:01:24;100641.00;;;3.12;100.00
68793;BME280;55778;54.346;10.210;2023-02-18T14:03:57;100640.47;;;3.07;100.00
68793;BME280;55778;54.346;10.210;2023-02-18T14:06:35;100639.66;;;3.19;100.00
68793;BME280;55778;54.346;10.210;2023-02-18T14:11:57;100614.25;;;3.35;100.00
68793;BME280;55778;54.346;10.210;2023-02-18T14:14:39;100613.66;;;3.57;100.00
68793;BME280;55778;54.346;10.210;2023-02-18T14:19:55;100603.44;;;3.62;100.00
68793;BME280;55778;54.346;10.210;2023-02-18T14:24:59;100632.53;;;3.57;100.00
68793;BME280;55778;54.346;10.210;2023-02-18T14:27:27;100627.91;;;3.96;100.00
68793;BME280;55778;54.346;10.210;2023-02-18T14:29:52;100654.13;;;4.07;100.00
68793;BME280;55778;54.346;10.210;2023-02-18T14:32:19;100657.59;;;4.09;100.00
68793;BME280;55778;54.346;10.210;2023-02-18T14:37:18;100646.16;;;3.93;100.00
68793;BME280;55778;54.346;10.210;2023-02-18T14:51:04;100651.66;;;3.91;100.00
68793;BME280;55778;54.346;10.210;2023-02-18T14:53:31;100662.09;;;3.83;100.00
68793;BME280;55778;54.346;10.210;2023-02-18T14:56:04;100672.41;;;3.64;100.00
68793;BME280;55778;54.346;10.210;2023-02-18T14:58:38;100687.47;;;3.54;100.00
68793;BME280;55778;54.346;10.210;2023-02-18T15:01:30;100685.00;;;3.64;100.00
68793;BME280;55778;54.346;10.210;2023-02-18T15:03:56;100686.50;;;3.55;100.00
68793;BME280;55778;54.346;10.210;2023-02-18T15:08:50;100674.03;;;3.67;100.00
68793;BME280;55778;54.346;10.210;2023-02-18T15:11:16;100685.41;;;3.58;100.00
68793;BME280;55778;54.346;10.210;2023-02-18T15:13:44;100687.28;;;3.57;100.00
68793;BME280;55778;54.346;10.210;2023-02-18T15:16:17;100682.09;;;3.54;100.00